Time;durP1;ratioP1;P1;durP2;ratioP2;P2;SDS_P1;SDS_P2;PMS_P1;PMS_P2;Temp;Humidity;BMP_temperature;BMP_pressure;BME280_temperature;BME280_humidity;BME280_pressure;Samples;Min_cycle;Max_cycle;Signal;HPM_P1;HPM_P2
2022/12/21 00:01:51;;;;;;;5.22;3.70;;;;;;;;;;5026173;28;20072;-87
2022/12/21 00:04:17;;;;;;;6.85;3.75;;;;;;;;;;5024899;28;20500;-87
2022/12/21 00:06:43;;;;;;;11.65;3.97;;;;;;;;;;5025777;28;20029;-87
2022/12/21 00:09:11;;;;;;;8.18;3.75;;;;;;;;;;5027945;28;20507;-87
2022/12/21 00:11:37;;;;;;;6.00;3.60;;;;;;;;;;5025927;28;20107;-87
2022/12/21 00:14:04;;;;;;;6.78;3.80;;;;;;;;;;5028540;28;20061;-87
2022/12/21 00:16:31;;;;;;;7.95;3.92;;;;;;;;;;5030316;28;20446;-87
2022/12/21 00:18:58;;;;;;;8.23;3.80;;;;;;;;;;5029562;28;20037;-87
2022/12/21 00:21:26;;;;;;;7.70;3.92;;;;;;;;;;5029959;28;20480;-86
2022/12/21 00:23:52;;;;;;;4.68;3.17;;;;;;;;;;5028098;28;20025;-87
2022/12/21 00:26:20;;;;;;;8.30;3.70;;;;;;;;;;5029423;28;20571;-87
2022/12/21 00:28:47;;;;;;;8.75;3.95;;;;;;;;;;5030401;28;20029;-88
2022/12/21 00:31:17;;;;;;;7.25;4.28;;;;;;;;;;5031021;28;20037;-87
2022/12/21 00:33:44;;;;;;;5.85;3.10;;;;;;;;;;5030209;28;20026;-88
2022/12/21 00:36:11;;;;;;;7.68;3.80;;;;;;;;;;5031610;28;20018;-88
2022/12/21 00:38:37;;;;;;;7.45;3.70;;;;;;;;;;5030650;28;20033;-87
2022/12/21 00:41:04;;;;;;;7.60;3.83;;;;;;;;;;5031126;28;20380;-88
2022/12/21 00:43:35;;;;;;;7.75;3.78;;;;;;;;;;5030476;28;20107;-88
2022/12/21 00:46:01;;;;;;;5.25;3.22;;;;;;;;;;5029107;28;20025;-87
2022/12/21 00:48:30;;;;;;;8.52;3.50;;;;;;;;;;5028545;28;20460;-87
2022/12/21 00:51:13;;;;;;;6.22;3.35;;;;;;;;;;5027844;28;20540;-88
2022/12/21 00:53:39;;;;;;;6.78;3.45;;;;;;;;;;5030418;28;20025;-87
2022/12/21 00:56:06;;;;;;;5.72;3.72;;;;;;;;;;5030600;28;20091;-87
2022/12/21 00:58:32;;;;;;;6.32;3.30;;;;;;;;;;5029817;28;20120;-86
2022/12/21 01:01:01;;;;;;;6.40;3.42;;;;;;;;;;5027492;28;20048;-88
2022/12/21 01:03:28;;;;;;;6.55;3.30;;;;;;;;;;5027348;28;20094;-88
2022/12/21 01:05:54;;;;;;;5.57;3.45;;;;;;;;;;5030807;28;20402;-88
2022/12/21 01:08:20;;;;;;;6.90;3.90;;;;;;;;;;5027628;28;20469;-88
2022/12/21 01:10:47;;;;;;;9.05;3.70;;;;;;;;;;5029016;28;20034;-87
2022/12/21 01:13:14;;;;;;;8.25;3.67;;;;;;;;;;5030312;28;20048;-88
2022/12/21 01:15:41;;;;;;;6.05;3.40;;;;;;;;;;5029244;28;20080;-89
2022/12/21 01:18:07;;;;;;;5.97;3.67;;;;;;;;;;5036458;28;20013;-88
2022/12/21 01:20:33;;;;;;;7.00;3.75;;;;;;;;;;5027520;28;20091;-88
2022/12/21 01:22:58;;;;;;;6.18;3.03;;;;;;;;;;5029029;28;20036;-89
2022/12/21 01:25:25;;;;;;;8.95;3.38;;;;;;;;;;5029683;28;20164;-88
2022/12/21 01:27:51;;;;;;;7.07;3.67;;;;;;;;;;5030111;28;20029;-87
2022/12/21 01:30:17;;;;;;;5.72;3.10;;;;;;;;;;5027307;28;20049;-87
2022/12/21 01:32:42;;;;;;;6.47;3.28;;;;;;;;;;5028897;28;20658;-89
2022/12/21 01:35:09;;;;;;;7.88;3.67;;;;;;;;;;5029413;28;20037;-88
2022/12/21 01:37:35;;;;;;;6.80;3.10;;;;;;;;;;5029648;28;20022;-88
2022/12/21 01:40:00;;;;;;;5.38;3.20;;;;;;;;;;5029593;28;20092;-88
2022/12/21 01:42:26;;;;;;;5.50;3.50;;;;;;;;;;5029159;28;20033;-87
2022/12/21 01:45:03;;;;;;;6.57;3.78;;;;;;;;;;5021748;28;20040;-88
2022/12/21 01:47:41;;;;;;;5.57;3.22;;;;;;;;;;5028730;28;20029;-88
2022/12/21 01:50:19;;;;;;;6.43;3.00;;;;;;;;;;5029883;28;20045;-88
2022/12/21 01:52:45;;;;;;;5.40;3.13;;;;;;;;;;5030194;28;20029;-88
2022/12/21 01:55:11;;;;;;;6.78;3.33;;;;;;;;;;5029497;28;20045;-87
2022/12/21 01:57:37;;;;;;;7.88;3.15;;;;;;;;;;5028274;28;20108;-87
2022/12/21 02:00:04;;;;;;;7.65;3.20;;;;;;;;;;5028992;28;20396;-86
2022/12/21 02:02:36;;;;;;;8.48;3.50;;;;;;;;;;5035831;28;20091;-88
2022/12/21 02:05:07;;;;;;;5.88;3.00;;;;;;;;;;5029816;28;20036;-87
2022/12/21 02:07:33;;;;;;;6.43;3.10;;;;;;;;;;5030132;28;20033;-88
2022/12/21 02:09:59;;;;;;;10.85;3.60;;;;;;;;;;5029120;28;20033;-88
2022/12/21 02:12:25;;;;;;;7.97;3.50;;;;;;;;;;5034120;28;20064;-87
2022/12/21 02:14:51;;;;;;;5.38;3.10;;;;;;;;;;5025983;28;20057;-88
2022/12/21 02:17:23;;;;;;;8.40;3.00;;;;;;;;;;5020317;28;20034;-86
2022/12/21 02:20:08;;;;;;;11.48;3.33;;;;;;;;;;5034600;28;20025;-88
2022/12/21 02:22:34;;;;;;;5.65;2.70;;;;;;;;;;5035908;28;20053;-88
2022/12/21 02:25:12;;;;;;;6.18;3.08;;;;;;;;;;5026486;28;20041;-88
2022/12/21 02:27:53;;;;;;;5.53;3.00;;;;;;;;;;5030297;28;20041;-88
2022/12/21 02:30:20;;;;;;;5.28;2.97;;;;;;;;;;5027802;28;20102;-88
2022/12/21 02:33:05;;;;;;;7.78;3.95;;;;;;;;;;5029361;28;20029;-89
2022/12/21 02:35:39;;;;;;;5.45;3.30;;;;;;;;;;5028322;28;20029;-89
2022/12/21 02:38:14;;;;;;;6.40;3.15;;;;;;;;;;5019644;28;20029;-88
2022/12/21 02:40:40;;;;;;;6.63;3.28;;;;;;;;;;5029476;28;20026;-88
2022/12/21 02:45:58;;;;;;;7.40;3.20;;;;;;;;;;5024247;28;20095;-88
2022/12/21 02:48:28;;;;;;;4.63;2.67;;;;;;;;;;5029414;28;20124;-89
2022/12/21 02:50:57;;;;;;;7.67;3.70;;;;;;;;;;5042082;28;20021;-87
2022/12/21 02:53:29;;;;;;;6.78;3.40;;;;;;;;;;5029690;28;20045;-87
2022/12/21 02:55:55;;;;;;;;;;;;;;;;;;5028835;28;20101;-88
2022/12/21 02:58:22;;;;;;;6.55;2.95;;;;;;;;;;5032283;28;19920;-88
2022/12/21 03:01:08;;;;;;;7.47;3.55;;;;;;;;;;5028439;28;20038;-89
2022/12/21 03:03:49;;;;;;;7.05;3.53;;;;;;;;;;5038002;28;20123;-88
2022/12/21 03:06:15;;;;;;;6.88;2.90;;;;;;;;;;5025973;28;20045;-87
2022/12/21 03:08:57;;;;;;;6.05;2.80;;;;;;;;;;5026965;28;20032;-88
2022/12/21 03:11:27;;;;;;;6.18;3.03;;;;;;;;;;5029449;28;20040;-88
2022/12/21 03:14:01;;;;;;;6.03;3.10;;;;;;;;;;5029685;28;20152;-89
2022/12/21 03:16:33;;;;;;;5.85;3.17;;;;;;;;;;5028722;28;20097;-87
2022/12/21 03:19:11;;;;;;;4.88;3.00;;;;;;;;;;5024341;28;20029;-87
2022/12/21 03:21:48;;;;;;;6.32;3.45;;;;;;;;;;5040082;28;20036;-86
2022/12/21 03:24:20;;;;;;;6.25;3.05;;;;;;;;;;5028067;28;20025;-88
2022/12/21 03:26:50;;;;;;;6.63;3.65;;;;;;;;;;5027363;28;20029;-87
2022/12/21 03:29:19;;;;;;;5.83;2.83;;;;;;;;;;5028340;28;20063;-86
2022/12/21 03:31:50;;;;;;;8.07;3.53;;;;;;;;;;5034381;28;20049;-88
2022/12/21 03:34:20;;;;;;;5.40;3.13;;;;;;;;;;5027120;28;20527;-87
2022/12/21 03:36:52;;;;;;;5.38;2.88;;;;;;;;;;5027351;28;20075;-86
2022/12/21 03:39:21;;;;;;;5.43;3.30;;;;;;;;;;5032478;28;20060;-87
2022/12/21 03:41:57;;;;;;;6.97;3.30;;;;;;;;;;5028409;28;20056;-86
2022/12/21 03:44:27;;;;;;;6.53;3.30;;;;;;;;;;5028336;28;20067;-87
2022/12/21 03:46:58;;;;;;;8.52;3.70;;;;;;;;;;5026062;28;20029;-86
2022/12/21 03:49:29;;;;;;;5.30;2.78;;;;;;;;;;5028620;28;20037;-86
2022/12/21 03:52:02;;;;;;;6.47;3.13;;;;;;;;;;5024350;28;20037;-87
2022/12/21 03:54:47;;;;;;;5.55;3.17;;;;;;;;;;5032085;28;20033;-86
2022/12/21 03:57:14;;;;;;;6.28;3.60;;;;;;;;;;5027189;28;20029;-87
2022/12/21 03:59:43;;;;;;;5.13;3.00;;;;;;;;;;5028139;28;20021;-87
2022/12/21 04:02:14;;;;;;;7.72;3.95;;;;;;;;;;5027734;28;20044;-86
2022/12/21 04:04:43;;;;;;;6.72;3.55;;;;;;;;;;5030680;28;20025;-87
2022/12/21 04:07:10;;;;;;;4.47;2.70;;;;;;;;;;5027382;28;20071;-87
2022/12/21 04:09:37;;;;;;;7.47;3.45;;;;;;;;;;5027271;28;20041;-87
2022/12/21 04:14:49;;;;;;;5.57;3.10;;;;;;;;;;5025938;28;20227;-86
2022/12/21 04:17:14;;;;;;;6.80;2.97;;;;;;;;;;5027268;28;20116;-87
2022/12/21 04:19:59;;;;;;;6.50;3.63;;;;;;;;;;5025988;28;20058;-87
2022/12/21 04:28:07;;;;;;;5.40;2.97;;;;;;;;;;5024652;28;20060;-81
2022/12/21 04:30:44;;;;;;;5.63;2.90;;;;;;;;;;5041317;28;20535;-85
2022/12/21 04:33:12;;;;;;;8.90;3.67;;;;;;;;;;5021388;28;20520;-81
2022/12/21 04:37:30;;;;;;;5.28;3.20;;;;;;;;;;5024231;28;20071;-82
2022/12/21 04:38:28;;;;;;;6.03;3.00;;;;;;;;;;5024771;28;20034;-85
2022/12/21 04:40:55;;;;;;;7.75;2.88;;;;;;;;;;5037329;28;20093;-89
2022/12/21 04:43:21;;;;;;;8.85;3.55;;;;;;;;;;5029873;28;20508;-87
2022/12/21 04:45:47;;;;;;;4.65;2.67;;;;;;;;;;5040137;28;20026;-88
2022/12/21 04:48:13;;;;;;;4.95;3.05;;;;;;;;;;5032502;28;20624;-87
2022/12/21 04:50:40;;;;;;;8.00;3.88;;;;;;;;;;5038366;28;20024;-88
2022/12/21 04:53:06;;;;;;;5.85;3.17;;;;;;;;;;5032209;28;20089;-89
2022/12/21 04:55:32;;;;;;;6.00;3.42;;;;;;;;;;5042139;28;20031;-88
2022/12/21 04:57:58;;;;;;;7.57;3.92;;;;;;;;;;5029036;28;20026;-88
2022/12/21 05:00:24;;;;;;;6.80;3.55;;;;;;;;;;5029227;28;20024;-88
2022/12/21 05:02:50;;;;;;;7.75;3.65;;;;;;;;;;5044223;28;20036;-87
2022/12/21 05:05:16;;;;;;;6.55;3.20;;;;;;;;;;5034150;28;20026;-88
2022/12/21 05:07:42;;;;;;;6.53;3.58;;;;;;;;;;5035962;28;20036;-88
2022/12/21 05:10:09;;;;;;;5.35;3.25;;;;;;;;;;5031430;28;20022;-89
2022/12/21 05:12:35;;;;;;;6.35;3.10;;;;;;;;;;5039584;28;20072;-88
2022/12/21 05:15:01;;;;;;;5.57;3.20;;;;;;;;;;5037842;28;20633;-89
2022/12/21 05:17:27;;;;;;;5.32;3.22;;;;;;;;;;5035085;28;20033;-89
2022/12/21 05:19:53;;;;;;;5.82;2.90;;;;;;;;;;5040040;28;20079;-89
2022/12/21 05:22:19;;;;;;;6.82;3.22;;;;;;;;;;5038995;28;20029;-90
2022/12/21 05:24:45;;;;;;;6.55;3.45;;;;;;;;;;5040732;28;20036;-87
2022/12/21 05:27:12;;;;;;;6.18;3.08;;;;;;;;;;5037803;28;20029;-89
2022/12/21 05:29:38;;;;;;;9.30;3.67;;;;;;;;;;5036117;28;20037;-89
2022/12/21 05:32:04;;;;;;;7.28;3.40;;;;;;;;;;5036925;28;20033;-89
2022/12/21 05:34:30;;;;;;;6.05;3.05;;;;;;;;;;5039742;28;20064;-89
2022/12/21 05:36:56;;;;;;;6.05;2.92;;;;;;;;;;5037428;28;20033;-87
2022/12/21 05:39:22;;;;;;;7.75;3.22;;;;;;;;;;5045411;28;20040;-88
2022/12/21 05:41:48;;;;;;;5.95;3.33;;;;;;;;;;5044192;28;20021;-87
2022/12/21 05:44:14;;;;;;;6.43;2.92;;;;;;;;;;5045920;28;20029;-89
2022/12/21 05:46:40;;;;;;;8.13;3.40;;;;;;;;;;5033655;28;20042;-90
2022/12/21 05:49:06;;;;;;;5.32;3.42;;;;;;;;;;5031921;28;20117;-89
2022/12/21 05:51:32;;;;;;;6.30;3.53;;;;;;;;;;5037542;28;20742;-88
2022/12/21 05:53:58;;;;;;;4.68;3.00;;;;;;;;;;5031841;28;20032;-90
2022/12/21 05:56:24;;;;;;;5.57;3.08;;;;;;;;;;5032108;28;20055;-89
2022/12/21 05:58:50;;;;;;;4.35;2.60;;;;;;;;;;5046020;28;20027;-90
2022/12/21 06:01:16;;;;;;;5.63;3.17;;;;;;;;;;5032054;28;20029;-90
2022/12/21 06:03:42;;;;;;;6.88;3.03;;;;;;;;;;5038318;28;20102;-89
2022/12/21 06:06:12;;;;;;;6.97;3.20;;;;;;;;;;5035277;28;20032;-89
2022/12/21 06:08:38;;;;;;;5.93;3.47;;;;;;;;;;5035694;28;20041;-90
2022/12/21 06:11:06;;;;;;;7.15;3.25;;;;;;;;;;5038883;28;20280;-90
2022/12/21 06:13:32;;;;;;;5.63;3.33;;;;;;;;;;5025519;28;20160;-89
2022/12/21 06:16:02;;;;;;;7.28;3.55;;;;;;;;;;5035000;28;20060;-88
2022/12/21 06:18:28;;;;;;;5.20;2.73;;;;;;;;;;5030986;28;20615;-88
2022/12/21 06:20:54;;;;;;;6.85;3.60;;;;;;;;;;5030745;28;20041;-89
2022/12/21 06:23:20;;;;;;;4.78;3.00;;;;;;;;;;5031201;28;20025;-87
2022/12/21 06:25:46;;;;;;;5.30;2.70;;;;;;;;;;5029735;28;20028;-87
2022/12/21 06:28:12;;;;;;;7.00;3.03;;;;;;;;;;5030906;28;20083;-87
2022/12/21 06:30:38;;;;;;;5.93;3.25;;;;;;;;;;5031455;28;20046;-88
2022/12/21 06:33:04;;;;;;;6.72;3.38;;;;;;;;;;5025542;28;20148;-88
2022/12/21 06:35:32;;;;;;;6.00;3.40;;;;;;;;;;5028986;28;20037;-88
2022/12/21 06:37:58;;;;;;;6.43;2.80;;;;;;;;;;5042252;28;20060;-89
2022/12/21 06:40:24;;;;;;;6.00;3.20;;;;;;;;;;5030473;28;20397;-87
2022/12/21 06:42:50;;;;;;;6.10;3.22;;;;;;;;;;5029132;28;20680;-87
2022/12/21 06:45:16;;;;;;;5.22;3.10;;;;;;;;;;5038500;28;20392;-87
2022/12/21 06:47:42;;;;;;;5.57;3.15;;;;;;;;;;5030198;28;20053;-86
2022/12/21 06:50:08;;;;;;;7.32;3.05;;;;;;;;;;5033446;28;20060;-86
2022/12/21 06:52:34;;;;;;;6.78;2.85;;;;;;;;;;5032874;28;20080;-87
2022/12/21 06:55:00;;;;;;;5.47;3.03;;;;;;;;;;5027382;28;20037;-77
2022/12/21 06:57:26;;;;;;;6.47;3.13;;;;;;;;;;5028673;28;20590;-80
2022/12/21 06:59:52;;;;;;;8.60;3.40;;;;;;;;;;5032142;28;20025;-83
2022/12/21 07:02:18;;;;;;;5.70;3.15;;;;;;;;;;5022537;28;20396;-78
2022/12/21 07:04:44;;;;;;;4.97;3.20;;;;;;;;;;5025267;28;20414;-78
2022/12/21 07:07:10;;;;;;;8.40;3.05;;;;;;;;;;5027964;28;20369;-80
2022/12/21 07:09:36;;;;;;;5.57;3.28;;;;;;;;;;5029278;28;20464;-78
2022/12/21 07:12:02;;;;;;;5.82;3.10;;;;;;;;;;5030881;28;20025;-78
2022/12/21 07:14:28;;;;;;;6.20;3.17;;;;;;;;;;5031785;28;20648;-82
2022/12/21 07:16:54;;;;;;;7.60;2.78;;;;;;;;;;5027271;28;20041;-84
2022/12/21 07:19:20;;;;;;;7.13;2.75;;;;;;;;;;5023767;28;20488;-84
2022/12/21 07:21:46;;;;;;;4.88;3.13;;;;;;;;;;5026235;28;20037;-82
2022/12/21 07:24:12;;;;;;;3.97;2.60;;;;;;;;;;5029188;28;20030;-82
2022/12/21 07:26:38;;;;;;;6.05;3.20;;;;;;;;;;5027074;28;20378;-83
2022/12/21 07:29:04;;;;;;;6.68;2.83;;;;;;;;;;5028732;28;20300;-83
2022/12/21 07:31:29;;;;;;;6.45;3.05;;;;;;;;;;5037047;28;20045;-84
2022/12/21 07:33:56;;;;;;;8.85;3.35;;;;;;;;;;5027749;28;20033;-85
2022/12/21 07:36:22;;;;;;;5.32;2.97;;;;;;;;;;5026422;28;20034;-85
2022/12/21 07:38:48;;;;;;;4.72;2.85;;;;;;;;;;5028466;28;20400;-85
2022/12/21 07:41:15;;;;;;;4.63;2.65;;;;;;;;;;5028433;28;20032;-85
2022/12/21 07:43:41;;;;;;;4.20;2.65;;;;;;;;;;5033083;28;20055;-86
2022/12/21 07:46:07;;;;;;;6.28;2.72;;;;;;;;;;5029058;28;20018;-85
2022/12/21 07:48:34;;;;;;;4.57;2.97;;;;;;;;;;5030696;28;20042;-87
2022/12/21 07:51:00;;;;;;;7.45;3.25;;;;;;;;;;5028436;28;20389;-85
2022/12/21 07:53:26;;;;;;;5.47;2.97;;;;;;;;;;5032089;28;20021;-85
2022/12/21 07:55:52;;;;;;;4.40;2.63;;;;;;;;;;5032760;28;20032;-85
2022/12/21 07:58:18;;;;;;;5.57;3.10;;;;;;;;;;5035113;28;20020;-89
2022/12/21 08:00:45;;;;;;;5.25;2.60;;;;;;;;;;5031116;28;20029;-88
2022/12/21 08:03:11;;;;;;;6.20;2.90;;;;;;;;;;5032924;28;20082;-83
2022/12/21 08:05:37;;;;;;;8.95;3.00;;;;;;;;;;5038019;28;20423;-88
2022/12/21 08:08:03;;;;;;;5.13;3.30;;;;;;;;;;5038984;28;20063;-88
2022/12/21 08:10:29;;;;;;;7.07;3.58;;;;;;;;;;5028630;28;20151;-87
2022/12/21 08:12:56;;;;;;;5.40;3.13;;;;;;;;;;5039770;28;20432;-88
2022/12/21 08:15:21;;;;;;;7.93;3.90;;;;;;;;;;5031681;28;20116;-88
2022/12/21 08:17:48;;;;;;;6.30;3.40;;;;;;;;;;5036313;28;20029;-88
2022/12/21 08:20:14;;;;;;;6.35;3.65;;;;;;;;;;5030318;28;20022;-87
2022/12/21 08:22:41;;;;;;;8.40;4.00;;;;;;;;;;5029171;28;20095;-88
2022/12/21 08:25:07;;;;;;;6.38;3.35;;;;;;;;;;5024292;28;20511;-87
2022/12/21 08:27:33;;;;;;;8.80;3.83;;;;;;;;;;5039602;28;20480;-88
2022/12/21 08:29:59;;;;;;;5.10;3.20;;;;;;;;;;5041593;28;20039;-89
2022/12/21 08:32:25;;;;;;;5.65;3.33;;;;;;;;;;5039635;28;20037;-88
2022/12/21 08:34:51;;;;;;;7.50;3.83;;;;;;;;;;5035056;28;20033;-88
2022/12/21 08:37:17;;;;;;;6.50;3.30;;;;;;;;;;5038772;28;20028;-88
2022/12/21 08:39:43;;;;;;;7.82;3.83;;;;;;;;;;5038666;28;20029;-86
2022/12/21 08:42:08;;;;;;;7.63;3.50;;;;;;;;;;5033203;28;20555;-83
2022/12/21 08:44:34;;;;;;;6.60;3.20;;;;;;;;;;5028979;28;20037;-84
2022/12/21 08:47:01;;;;;;;6.43;3.40;;;;;;;;;;5038484;28;20408;-83
2022/12/21 08:49:27;;;;;;;7.80;3.63;;;;;;;;;;5033158;28;20030;-83
2022/12/21 08:51:53;;;;;;;6.40;3.17;;;;;;;;;;5033883;28;20364;-83
2022/12/21 08:54:19;;;;;;;8.30;3.35;;;;;;;;;;5030587;28;20037;-82
2022/12/21 08:56:45;;;;;;;7.10;3.72;;;;;;;;;;5038145;28;20021;-78
2022/12/21 08:59:11;;;;;;;5.95;2.83;;;;;;;;;;5035653;28;20050;-77
2022/12/21 09:01:37;;;;;;;5.32;3.20;;;;;;;;;;5035416;28;20022;-77
2022/12/21 09:04:03;;;;;;;7.22;2.88;;;;;;;;;;5030767;28;20026;-78
2022/12/21 09:06:29;;;;;;;6.43;3.00;;;;;;;;;;5029969;28;20049;-78
2022/12/21 09:08:56;;;;;;;5.43;3.05;;;;;;;;;;5032209;28;20047;-83
2022/12/21 09:11:27;;;;;;;8.18;3.40;;;;;;;;;;5030078;28;20053;-76
2022/12/21 09:13:53;;;;;;;6.43;3.13;;;;;;;;;;5038982;28;20029;-77
2022/12/21 09:16:20;;;;;;;7.15;3.30;;;;;;;;;;5031952;28;20424;-81
2022/12/21 09:18:46;;;;;;;6.80;3.58;;;;;;;;;;5040397;28;20044;-77
2022/12/21 09:21:13;;;;;;;5.85;2.97;;;;;;;;;;5025965;28;20033;-81
2022/12/21 09:23:39;;;;;;;8.63;3.47;;;;;;;;;;5031060;28;20053;-81
2022/12/21 09:26:05;;;;;;;6.78;3.47;;;;;;;;;;5031234;28;20115;-80
2022/12/21 09:28:31;;;;;;;6.35;3.30;;;;;;;;;;5030049;28;20392;-80
2022/12/21 09:31:05;;;;;;;7.20;3.42;;;;;;;;;;5038604;28;20037;-79
2022/12/21 09:33:31;;;;;;;6.38;3.40;;;;;;;;;;5027199;28;20102;-80
2022/12/21 09:35:57;;;;;;;5.80;3.10;;;;;;;;;;5021518;28;20041;-79
2022/12/21 09:38:23;;;;;;;5.75;3.10;;;;;;;;;;5022909;28;20030;-79
2022/12/21 09:40:48;;;;;;;6.13;3.53;;;;;;;;;;5025782;28;20037;-80
2022/12/21 09:43:17;;;;;;;6.90;3.80;;;;;;;;;;5037808;28;20041;-80
2022/12/21 09:45:43;;;;;;;8.60;3.58;;;;;;;;;;5027180;28;20033;-80
2022/12/21 09:48:12;;;;;;;7.88;4.00;;;;;;;;;;5027307;28;20190;-79
2022/12/21 09:50:42;;;;;;;8.13;3.85;;;;;;;;;;5027250;28;20032;-80
2022/12/21 09:53:32;;;;;;;8.07;4.63;;;;;;;;;;5028276;28;20099;-79
2022/12/21 09:55:59;;;;;;;10.30;4.22;;;;;;;;;;5030305;28;20116;-78
2022/12/21 09:58:31;;;;;;;8.02;3.97;;;;;;;;;;5031509;28;20025;-80
2022/12/21 10:01:12;;;;;;;8.07;3.58;;;;;;;;;;5031924;28;20033;-80
2022/12/21 10:03:57;;;;;;;5.65;3.22;;;;;;;;;;5026988;28;20021;-78
2022/12/21 10:06:41;;;;;;;11.15;3.90;;;;;;;;;;5020563;28;20044;-78
2022/12/21 10:09:16;;;;;;;10.55;4.45;;;;;;;;;;5034913;28;20022;-78
2022/12/21 10:11:52;;;;;;;8.00;3.78;;;;;;;;;;5030783;28;20026;-78
2022/12/21 10:14:39;;;;;;;8.27;3.58;;;;;;;;;;5028621;28;20064;-78
2022/12/21 10:17:23;;;;;;;7.35;3.63;;;;;;;;;;5028213;28;20029;-78
2022/12/21 10:20:00;;;;;;;6.78;4.18;;;;;;;;;;5034725;28;20502;-81
2022/12/21 10:22:32;;;;;;;7.28;3.20;;;;;;;;;;5033792;28;20231;-81
2022/12/21 10:25:00;;;;;;;11.82;3.35;;;;;;;;;;5026670;28;20048;-81
2022/12/21 10:27:34;;;;;;;7.45;3.97;;;;;;;;;;5030509;28;20034;-80
2022/12/21 10:30:00;;;;;;;10.07;4.32;;;;;;;;;;5026145;28;20613;-80
2022/12/21 10:32:28;;;;;;;8.20;3.83;;;;;;;;;;5038674;28;20513;-80
2022/12/21 10:34:55;;;;;;;8.95;3.55;;;;;;;;;;5028026;28;20556;-80
2022/12/21 10:37:21;;;;;;;7.13;3.53;;;;;;;;;;5026886;28;20028;-80
2022/12/21 10:39:49;;;;;;;6.32;3.63;;;;;;;;;;5026212;28;20452;-80
2022/12/21 10:42:21;;;;;;;8.15;3.50;;;;;;;;;;5022708;28;20026;-80
2022/12/21 10:44:47;;;;;;;6.85;3.38;;;;;;;;;;5035499;28;20135;-80
2022/12/21 10:47:18;;;;;;;7.65;3.63;;;;;;;;;;5041307;28;20032;-80
2022/12/21 10:50:03;;;;;;;7.25;3.75;;;;;;;;;;5027823;28;20038;-85
2022/12/21 10:52:41;;;;;;;8.27;4.07;;;;;;;;;;5030119;28;20158;-84
2022/12/21 10:55:24;;;;;;;7.43;3.60;;;;;;;;;;5029709;28;20095;-81
2022/12/21 10:58:05;;;;;;;6.82;3.55;;;;;;;;;;5021141;28;20142;-83
2022/12/21 11:00:32;;;;;;;7.38;3.65;;;;;;;;;;5013636;28;20172;-83
2022/12/21 11:03:00;;;;;;;6.10;3.42;;;;;;;;;;5027101;28;20474;-82
2022/12/21 11:05:36;;;;;;;5.95;3.25;;;;;;;;;;5025942;28;20468;-82
2022/12/21 11:08:14;;;;;;;6.05;3.25;;;;;;;;;;5029324;28;20484;-83
2022/12/21 11:10:42;;;;;;;7.03;3.75;;;;;;;;;;5028972;28;20026;-83
2022/12/21 11:13:08;;;;;;;6.75;3.72;;;;;;;;;;5027526;28;20400;-83
2022/12/21 11:15:34;;;;;;;6.93;3.38;;;;;;;;;;5027462;28;20033;-83
2022/12/21 11:18:03;;;;;;;6.35;3.42;;;;;;;;;;5031311;28;20017;-83
2022/12/21 11:20:30;;;;;;;6.75;3.72;;;;;;;;;;5031821;28;20643;-83
2022/12/21 11:22:56;;;;;;;5.53;3.13;;;;;;;;;;5027877;28;20036;-84
2022/12/21 11:25:25;;;;;;;6.97;3.78;;;;;;;;;;5028651;28;20339;-83
2022/12/21 11:27:54;;;;;;;5.03;2.90;;;;;;;;;;5029449;28;20116;-82
2022/12/21 11:30:22;;;;;;;7.13;3.30;;;;;;;;;;5025583;28;20132;-83
2022/12/21 11:32:49;;;;;;;4.43;2.88;;;;;;;;;;5026300;28;20036;-82
2022/12/21 11:35:19;;;;;;;6.15;3.47;;;;;;;;;;5028892;28;20025;-85
2022/12/21 11:37:51;;;;;;;7.57;3.10;;;;;;;;;;5030812;28;20057;-85
2022/12/21 11:40:20;;;;;;;6.83;3.77;;;;;;;;;;5024109;28;20542;-85
2022/12/21 11:42:53;;;;;;;5.05;2.72;;;;;;;;;;5030827;28;20049;-85
2022/12/21 11:45:26;;;;;;;7.38;3.58;;;;;;;;;;5038595;28;20536;-84
2022/12/21 11:48:06;;;;;;;5.65;3.28;;;;;;;;;;5028720;28;20060;-85
2022/12/21 11:50:49;;;;;;;4.60;2.83;;;;;;;;;;5028323;28;20449;-84
2022/12/21 11:53:24;;;;;;;6.45;3.53;;;;;;;;;;5027831;28;20037;-84
2022/12/21 11:55:59;;;;;;;5.63;2.70;;;;;;;;;;5030225;28;20033;-84
2022/12/21 11:58:37;;;;;;;7.38;3.00;;;;;;;;;;5024435;28;20044;-81
2022/12/21 12:01:10;;;;;;;4.32;2.80;;;;;;;;;;5024614;28;20428;-83
2022/12/21 12:03:42;;;;;;;5.47;3.17;;;;;;;;;;5030905;28;20049;-83
2022/12/21 12:06:24;;;;;;;5.05;3.40;;;;;;;;;;5033260;28;20033;-83
2022/12/21 12:09:06;;;;;;;5.05;2.92;;;;;;;;;;5027217;28;20112;-83
2022/12/21 12:11:32;;;;;;;4.78;2.95;;;;;;;;;;5027367;28;20041;-83
2022/12/21 12:14:00;;;;;;;6.05;2.85;;;;;;;;;;5025511;28;20059;-82
2022/12/21 12:16:30;;;;;;;6.93;3.42;;;;;;;;;;5028844;28;20499;-86
2022/12/21 12:18:56;;;;;;;6.70;3.35;;;;;;;;;;5041603;28;20116;-84
2022/12/21 12:21:42;;;;;;;5.50;2.90;;;;;;;;;;5025957;28;20029;-84
2022/12/21 12:24:27;;;;;;;6.80;2.88;;;;;;;;;;5026028;28;20030;-84
2022/12/21 12:27:12;;;;;;;6.15;2.78;;;;;;;;;;5016185;28;20415;-85
2022/12/21 12:29:44;;;;;;;7.03;2.85;;;;;;;;;;5025626;28;20056;-84
2022/12/21 12:32:18;;;;;;;5.72;3.22;;;;;;;;;;5025272;28;20115;-83
2022/12/21 12:34:51;;;;;;;5.18;3.22;;;;;;;;;;5013204;28;20552;-83
2022/12/21 12:37:26;;;;;;;5.43;3.10;;;;;;;;;;5027882;28;20055;-82
2022/12/21 12:40:02;;;;;;;5.55;3.30;;;;;;;;;;5026141;28;20061;-83
2022/12/21 12:42:33;;;;;;;5.13;2.83;;;;;;;;;;5022904;28;20029;-83
2022/12/21 12:45:01;;;;;;;5.35;2.78;;;;;;;;;;5025722;28;20034;-83
2022/12/21 12:47:34;;;;;;;9.05;3.20;;;;;;;;;;5033815;28;20029;-82
2022/12/21 12:50:26;;;;;;;7.28;3.17;;;;;;;;;;5033454;28;20045;-82
2022/12/21 12:53:13;;;;;;;5.03;2.75;;;;;;;;;;5005091;28;20803;-83
2022/12/21 12:55:58;;;;;;;6.28;3.15;;;;;;;;;;5024664;28;20033;-82
2022/12/21 12:58:44;;;;;;;4.70;2.90;;;;;;;;;;5026741;28;20025;-82
2022/12/21 13:01:15;;;;;;;6.35;3.15;;;;;;;;;;5019569;28;20120;-82
2022/12/21 13:03:47;;;;;;;6.93;2.88;;;;;;;;;;5027585;28;20443;-84
2022/12/21 13:06:31;;;;;;;5.15;2.80;;;;;;;;;;5026136;28;20033;-84
2022/12/21 13:09:00;;;;;;;5.68;2.88;;;;;;;;;;5020554;28;20116;-82
2022/12/21 13:11:35;;;;;;;4.38;2.28;;;;;;;;;;5017430;28;20037;-82
2022/12/21 13:14:04;;;;;;;5.20;3.13;;;;;;;;;;5025659;28;20042;-82
2022/12/21 13:16:39;;;;;;;5.45;2.75;;;;;;;;;;5025616;28;20385;-83
2022/12/21 13:19:06;;;;;;;5.07;2.80;;;;;;;;;;5025818;28;20029;-82
2022/12/21 13:21:34;;;;;;;4.93;2.53;;;;;;;;;;5027193;28;20049;-82
2022/12/21 13:24:07;;;;;;;4.43;2.47;;;;;;;;;;5029365;28;20430;-82
2022/12/21 13:26:44;;;;;;;5.32;2.60;;;;;;;;;;5024357;28;20057;-82
2022/12/21 13:29:23;;;;;;;3.85;2.50;;;;;;;;;;5029648;28;20383;-82
2022/12/21 13:31:51;;;;;;;4.63;2.83;;;;;;;;;;5020852;28;20052;-84
2022/12/21 13:34:20;;;;;;;4.70;2.70;;;;;;;;;;5028841;28;20041;-83
2022/12/21 13:36:47;;;;;;;6.65;3.20;;;;;;;;;;5030520;28;20213;-82
2022/12/21 13:39:28;;;;;;;5.78;2.50;;;;;;;;;;5039138;28;20022;-83
2022/12/21 13:42:01;;;;;;;5.10;2.42;;;;;;;;;;5029631;28;20018;-83
2022/12/21 13:44:31;;;;;;;5.10;2.80;;;;;;;;;;5036927;28;20048;-82
2022/12/21 13:46:58;;;;;;;7.63;3.00;;;;;;;;;;5029481;28;20334;-83
2022/12/21 13:49:23;;;;;;;6.70;3.10;;;;;;;;;;5033417;28;20442;-83
2022/12/21 13:51:57;;;;;;;5.05;2.90;;;;;;;;;;5031874;28;20025;-83
2022/12/21 13:54:38;;;;;;;4.03;2.42;;;;;;;;;;5026494;28;20053;-83
2022/12/21 13:57:10;;;;;;;5.70;2.58;;;;;;;;;;5029690;28;20474;-82
2022/12/21 13:59:46;;;;;;;5.03;2.60;;;;;;;;;;5026618;28;20064;-85
2022/12/21 14:02:31;;;;;;;5.72;2.60;;;;;;;;;;5030163;28;20400;-84
2022/12/21 14:05:00;;;;;;;4.97;2.70;;;;;;;;;;5026627;28;20036;-85
2022/12/21 14:07:48;;;;;;;7.30;2.88;;;;;;;;;;5030192;28;20561;-83
2022/12/21 14:10:20;;;;;;;6.45;3.03;;;;;;;;;;5028565;28;20025;-84
2022/12/21 14:12:55;;;;;;;4.50;2.85;;;;;;;;;;5030072;28;20032;-83
2022/12/21 14:15:27;;;;;;;4.68;2.50;;;;;;;;;;5028796;28;20035;-83
2022/12/21 14:17:55;;;;;;;5.10;2.67;;;;;;;;;;5035295;28;20033;-83
2022/12/21 14:20:26;;;;;;;4.13;2.78;;;;;;;;;;5029371;28;20025;-83
2022/12/21 14:22:53;;;;;;;4.13;2.38;;;;;;;;;;5022601;28;20052;-85
2022/12/21 14:25:31;;;;;;;5.75;2.70;;;;;;;;;;5028208;28;20040;-84
2022/12/21 14:28:03;;;;;;;4.57;2.33;;;;;;;;;;5027797;28;20054;-84
2022/12/21 14:30:30;;;;;;;6.18;2.50;;;;;;;;;;5023829;28;20517;-83
2022/12/21 14:32:59;;;;;;;3.72;2.42;;;;;;;;;;5028452;28;20033;-81
2022/12/21 14:35:30;;;;;;;3.60;2.20;;;;;;;;;;5028524;28;20033;-83
2022/12/21 14:38:10;;;;;;;3.45;2.20;;;;;;;;;;5026986;28;20075;-82
2022/12/21 14:40:54;;;;;;;3.47;2.50;;;;;;;;;;5030873;28;20420;-83
2022/12/21 14:43:21;;;;;;;4.53;2.25;;;;;;;;;;5033880;28;20013;-82
2022/12/21 14:45:48;;;;;;;5.55;2.40;;;;;;;;;;5030493;28;20029;-82
2022/12/21 14:48:29;;;;;;;3.95;2.28;;;;;;;;;;5027691;28;20100;-82
2022/12/21 14:50:58;;;;;;;4.28;2.30;;;;;;;;;;5029354;28;20063;-82
2022/12/21 14:53:27;;;;;;;4.55;2.67;;;;;;;;;;5027697;28;20099;-82
2022/12/21 14:56:08;;;;;;;3.42;1.95;;;;;;;;;;5032658;28;20548;-82
2022/12/21 14:58:35;;;;;;;5.55;1.98;;;;;;;;;;5026267;28;20018;-82
2022/12/21 15:01:10;;;;;;;4.72;2.40;;;;;;;;;;5028763;28;20040;-84
2022/12/21 15:03:40;;;;;;;4.72;2.60;;;;;;;;;;5026183;28;20029;-82
2022/12/21 15:06:06;;;;;;;5.65;1.90;;;;;;;;;;5027542;28;20104;-80
2022/12/21 15:08:46;;;;;;;3.28;1.85;;;;;;;;;;5027470;28;20120;-80
2022/12/21 15:11:17;;;;;;;5.70;2.60;;;;;;;;;;5024629;28;20517;-79